Time;durP1;ratioP1;P1;durP2;ratioP2;P2;SDS_P1;SDS_P2;PMS_P1;PMS_P2;Temp;Humidity;BMP_temperature;BMP_pressure;BME280_temperature;BME280_humidity;BME280_pressure;Samples;Min_cycle;Max_cycle;Signal;HPM_P1;HPM_P2
2022/01/22 00:00:21;;;;;;;133.32;74.90;;;;;;;17.34;48.77;103487.19;5080172;28;20052;-34
2022/01/22 00:02:49;;;;;;;125.40;71.72;;;;;;;17.33;48.61;103485.47;5081693;28;20044;-34
2022/01/22 00:05:17;;;;;;;126.40;70.10;;;;;;;17.31;48.66;103487.38;5083285;28;20047;-34
2022/01/22 00:07:44;;;;;;;123.72;69.25;;;;;;;17.32;48.76;103485.53;5080529;28;20055;-34
2022/01/22 00:10:18;;;;;;;122.93;66.70;;;;;;;17.28;48.39;103483.03;5082383;28;20037;-34
2022/01/22 00:15:18;;;;;;;118.68;64.15;;;;;;;17.27;48.58;103475.06;5076698;28;20045;-34
2022/01/22 00:17:47;;;;;;;116.65;64.55;;;;;;;17.25;48.93;103469.81;5079902;28;20044;-34
2022/01/22 00:20:17;;;;;;;108.65;61.00;;;;;;;17.24;48.83;103456.47;5079840;28;20568;-34
2022/01/22 00:22:44;;;;;;;114.95;62.58;;;;;;;17.24;48.52;103453.78;5080452;28;20094;-34
2022/01/22 00:25:12;;;;;;;106.65;58.58;;;;;;;17.23;49.21;103447.56;5077558;28;20040;-33
2022/01/22 00:27:41;;;;;;;105.50;57.35;;;;;;;17.21;49.08;103446.81;5076333;28;20044;-33
2022/01/22 00:30:11;;;;;;;101.57;57.03;;;;;;;17.21;48.58;103446.81;5079859;28;20046;-34
2022/01/22 00:32:38;;;;;;;98.55;54.92;;;;;;;17.18;48.58;103449.66;5080221;28;20048;-34
2022/01/22 00:35:07;;;;;;;95.80;52.70;;;;;;;17.19;48.79;103450.50;5079553;28;20054;-33
2022/01/22 00:37:35;;;;;;;98.78;53.28;;;;;;;17.16;48.52;103454.22;5082497;28;20054;-34
2022/01/22 00:40:03;;;;;;;99.20;50.38;;;;;;;17.16;48.55;103450.69;5075617;28;20040;-34
2022/01/22 00:42:32;;;;;;;89.82;48.92;;;;;;;17.14;48.56;103450.78;5080725;28;20517;-34
2022/01/22 00:45:00;;;;;;;88.15;48.22;;;;;;;17.12;48.51;103446.44;5078560;28;20052;-34
2022/01/22 00:47:27;;;;;;;84.03;46.00;;;;;;;17.12;48.59;103459.84;5079300;28;20176;-34
2022/01/22 00:49:53;;;;;;;82.70;44.92;;;;;;;17.11;48.83;103455.44;5078957;28;20055;-34
2022/01/22 00:52:20;;;;;;;80.85;44.65;;;;;;;17.09;48.58;103450.16;5078508;28;20159;-33
2022/01/22 00:54:46;;;;;;;78.05;43.38;;;;;;;17.09;48.87;103452.84;5080611;28;20422;-34
2022/01/22 00:57:13;;;;;;;81.65;44.03;;;;;;;17.08;49.43;103453.78;5082155;28;20162;-34
2022/01/22 00:59:39;;;;;;;75.13;41.28;;;;;;;17.06;49.59;103447.66;5075107;28;20045;-33
2022/01/22 01:02:06;;;;;;;75.60;41.60;;;;;;;17.05;49.25;103451.28;5077112;28;20050;-34
2022/01/22 01:04:35;;;;;;;69.97;39.75;;;;;;;17.05;48.75;103451.28;5080505;28;20070;-34
2022/01/22 01:07:04;;;;;;;69.40;38.30;;;;;;;17.03;49.28;103453.16;5078288;28;20052;-34
2022/01/22 01:09:31;;;;;;;65.43;37.35;;;;;;;17.02;49.19;103464.84;5082834;28;20051;-34
2022/01/22 01:12:02;;;;;;;67.15;36.38;;;;;;;17.01;49.58;103460.44;5081398;28;20052;-33
2022/01/22 01:14:36;;;;;;;59.33;34.78;;;;;;;16.99;49.78;103454.28;5079983;28;20486;-33
2022/01/22 01:36:19;;;;;;;54.45;30.25;;;;;;;16.91;49.23;103460.03;5066446;28;21092;-33
2022/01/22 01:38:52;;;;;;;50.45;28.10;;;;;;;16.92;49.19;103471.63;5078953;28;20123;-33
2022/01/22 01:41:32;;;;;;;49.88;27.30;;;;;;;16.91;50.27;103470.75;5079323;28;20079;-32
2022/01/22 01:43:58;;;;;;;47.35;26.75;;;;;;;16.90;49.92;103466.38;5078935;28;20055;-33
2022/01/22 01:46:29;;;;;;;49.70;26.50;;;;;;;16.89;50.33;103467.31;5077417;28;20055;-33
2022/01/22 01:48:56;;;;;;;49.95;25.98;;;;;;;16.89;49.91;103467.31;5080523;28;20375;-33
2022/01/22 01:51:26;;;;;;;47.53;26.25;;;;;;;16.88;49.52;103459.34;5081583;28;20036;-33
2022/01/22 01:54:06;;;;;;;43.53;23.90;;;;;;;16.88;50.29;103467.38;5080388;28;20135;-32
2022/01/22 01:59:18;;;;;;;43.13;24.15;;;;;;;16.88;49.61;103468.25;5079755;28;20056;-33
2022/01/22 02:01:45;;;;;;;42.08;23.90;;;;;;;16.87;49.87;103466.53;5075834;28;20060;-33
2022/01/22 02:04:13;;;;;;;39.30;22.83;;;;;;;16.86;50.01;103471.97;5077377;28;20048;-33
2022/01/22 02:06:41;;;;;;;39.45;22.13;;;;;;;16.85;49.86;103463.06;5081523;28;20044;-34
2022/01/22 02:09:09;;;;;;;38.78;22.10;;;;;;;16.86;49.61;103463.94;5084055;28;20045;-33
2022/01/22 02:11:39;;;;;;;41.22;20.95;;;;;;;16.85;49.63;103472.94;5083316;28;20049;-33
2022/01/22 02:23:29;;;;;;;38.47;21.23;;;;;;;16.84;49.79;103472.03;5086337;28;20048;-33
2022/01/22 02:25:10;;;;;;;33.47;18.75;;;;;;;16.83;49.50;103475.66;5081519;28;20056;-33
2022/01/22 02:27:36;;;;;;;32.75;18.25;;;;;;;16.83;49.87;103477.47;5082706;28;20040;-33
2022/01/22 02:30:04;;;;;;;36.65;20.00;;;;;;;16.81;49.26;103474.91;5083337;28;20394;-33
2022/01/22 02:35:24;;;;;;;32.13;17.38;;;;;;;16.80;50.07;103470.47;5083791;28;20048;-33
2022/01/22 02:37:58;;;;;;;31.40;17.20;;;;;;;16.81;50.61;103474.91;5083071;28;20048;-33
2022/01/22 02:40:29;;;;;;;28.00;16.48;;;;;;;16.81;50.02;103471.34;5082189;28;20048;-33
2022/01/22 02:42:58;;;;;;;30.20;16.95;;;;;;;16.78;50.14;103477.72;5085581;28;20496;-33
2022/01/22 02:45:25;;;;;;;27.15;15.07;;;;;;;16.78;50.07;103475.91;5081330;28;20642;-33
2022/01/22 02:47:52;;;;;;;27.55;15.45;;;;;;;16.77;49.61;103468.84;5081444;28;20048;-33
2022/01/22 02:50:19;;;;;;;25.98;14.43;;;;;;;16.78;50.36;103481.28;5082549;28;20040;-33
2022/01/22 02:52:46;;;;;;;26.98;15.32;;;;;;;16.78;49.88;103475.06;5080613;28;20059;-32
2022/01/22 02:55:14;;;;;;;27.52;14.80;;;;;;;16.76;50.30;103464.44;5079262;28;20055;-33
2022/01/22 02:57:43;;;;;;;25.17;13.85;;;;;;;16.75;49.65;103464.50;5083783;28;21301;-33
2022/01/22 03:00:16;;;;;;;25.77;14.38;;;;;;;16.74;50.00;103463.63;5079260;28;20127;-33
2022/01/22 03:02:43;;;;;;;23.08;13.57;;;;;;;16.74;49.98;103468.13;5082665;28;20052;-33
2022/01/22 03:05:10;;;;;;;25.08;13.60;;;;;;;16.74;49.74;103465.44;5083258;28;20071;-33
2022/01/22 03:07:39;;;;;;;24.38;12.73;;;;;;;16.73;50.48;103466.41;5081472;28;20146;-33
2022/01/22 03:10:08;;;;;;;25.13;12.68;;;;;;;16.74;50.00;103473.47;5078695;28;20054;-33
2022/01/22 03:18:05;;;;;;;25.38;13.50;;;;;;;16.71;49.83;103479.81;5080948;28;20542;-33
2022/01/22 03:20:48;;;;;;;21.83;12.90;;;;;;;16.70;50.45;103478.09;5080074;28;20046;-32
2022/01/22 03:28:59;;;;;;;20.52;11.65;;;;;;;16.70;50.19;103474.56;5079962;28;20054;-33
2022/01/22 03:31:26;;;;;;;22.45;11.38;;;;;;;16.70;50.42;103475.41;5080687;28;20428;-33
2022/01/22 03:33:53;;;;;;;19.42;10.52;;;;;;;16.68;50.21;103474.66;5079833;28;20051;-33
2022/01/22 03:36:20;;;;;;;19.85;10.82;;;;;;;16.69;50.25;103480.88;5084747;28;20040;-33
2022/01/22 03:38:47;;;;;;;19.15;9.93;;;;;;;16.68;50.70;103476.44;5083238;28;20048;-33
2022/01/22 03:41:15;;;;;;;15.90;9.57;;;;;;;16.67;50.08;103475.56;5080290;28;20037;-33
2022/01/22 03:43:43;;;;;;;17.75;10.55;;;;;;;16.68;50.48;103474.66;5084179;28;20051;-34
2022/01/22 03:46:09;;;;;;;17.95;10.43;;;;;;;16.67;50.42;103477.38;5082936;28;20040;-33
2022/01/22 03:48:36;;;;;;;17.83;10.20;;;;;;;16.67;50.17;103483.59;5079978;28;20083;-33
2022/01/22 03:51:02;;;;;;;18.30;10.50;;;;;;;16.68;49.97;103471.06;5084019;28;20040;-33
2022/01/22 03:53:29;;;;;;;19.98;10.10;;;;;;;16.67;50.32;103474.72;5082708;28;20041;-33
2022/01/22 03:56:03;;;;;;;16.83;9.27;;;;;;;16.67;50.13;103477.38;5081449;28;20052;-33
2022/01/22 03:58:42;;;;;;;17.10;9.13;;;;;;;16.66;49.71;103475.66;5079746;28;20052;-42
2022/01/22 04:09:08;;;;;;;15.75;8.80;;;;;;;16.64;50.66;103485.56;5073800;28;20458;-32
2022/01/22 04:11:40;;;;;;;13.95;7.75;;;;;;;16.63;50.75;103483.84;5082109;28;20049;-33
2022/01/22 04:14:14;;;;;;;14.93;7.47;;;;;;;16.63;50.83;103481.16;5079991;28;20048;-32
2022/01/22 04:16:54;;;;;;;14.40;8.70;;;;;;;16.63;50.70;103487.38;5083567;28;20048;-33
2022/01/22 04:24:54;;;;;;;14.30;7.85;;;;;;;16.62;50.26;103476.78;5082438;28;20424;-33
2022/01/22 04:27:23;;;;;;;11.98;7.43;;;;;;;16.62;50.10;103477.63;5082643;28;20163;-33
2022/01/22 04:29:51;;;;;;;12.93;7.72;;;;;;;16.60;50.73;103475.97;5079691;28;20127;-32
2022/01/22 04:32:18;;;;;;;11.23;6.78;;;;;;;16.60;50.78;103484.88;5080252;28;20123;-32
2022/01/22 04:34:45;;;;;;;12.57;6.45;;;;;;;16.61;50.77;103483.94;5079520;28;20075;-32
2022/01/22 04:37:11;;;;;;;12.65;6.80;;;;;;;16.60;50.58;103484.00;5080106;28;20372;-32
2022/01/22 04:39:38;;;;;;;13.55;7.05;;;;;;;16.59;50.70;103480.47;5081915;28;20047;-32
2022/01/22 04:42:05;;;;;;;11.40;6.03;;;;;;;16.59;50.14;103476.94;5078452;28;20054;-32
2022/01/22 04:44:38;;;;;;;14.20;7.03;;;;;;;16.59;50.35;103471.56;5081924;28;20047;-33
2022/01/22 04:52:36;;;;;;;11.68;6.20;;;;;;;16.58;50.71;103467.16;5071927;28;20059;-32
2022/01/22 04:55:03;;;;;;;11.05;6.05;;;;;;;16.58;50.24;103469.84;5078507;28;20059;-33
2022/01/22 04:57:46;;;;;;;9.55;5.18;;;;;;;16.56;50.67;103463.69;5079179;28;20133;-32
2022/01/22 05:00:16;;;;;;;13.63;5.75;;;;;;;16.57;51.22;103470.81;5080241;28;20155;-33
2022/01/22 05:02:43;;;;;;;10.05;5.78;;;;;;;16.55;50.87;103470.84;5078855;28;20047;-33
2022/01/22 05:05:10;;;;;;;11.88;5.85;;;;;;;16.55;51.11;103476.22;5080596;28;20045;-33
2022/01/22 05:07:36;;;;;;;9.90;5.13;;;;;;;16.54;50.17;103478.03;5079745;28;20052;-33
2022/01/22 05:10:04;;;;;;;9.63;5.25;;;;;;;16.54;50.47;103478.03;5079043;28;20446;-33
2022/01/22 05:12:31;;;;;;;11.07;5.28;;;;;;;16.53;50.48;103473.63;5082997;28;20443;-33
2022/01/22 05:14:58;;;;;;;9.82;5.00;;;;;;;16.54;51.04;103477.16;5080594;28;20044;-33
2022/01/22 05:17:24;;;;;;;9.32;5.18;;;;;;;16.52;50.43;103471.91;5076916;28;20135;-32
2022/01/22 05:20:05;;;;;;;8.15;4.65;;;;;;;16.53;50.89;103476.31;5081462;28;20055;-33
2022/01/22 05:25:24;;;;;;;10.40;5.05;;;;;;;16.53;50.22;103470.94;5078394;28;20048;-33
2022/01/22 05:28:08;;;;;;;7.32;4.35;;;;;;;16.53;50.28;103472.78;5081358;28;20489;-33
2022/01/22 05:30:54;;;;;;;8.48;4.43;;;;;;;16.53;51.17;103470.09;5077162;28;20048;-33
2022/01/22 05:38:52;;;;;;;7.88;4.35;;;;;;;16.51;50.80;103466.59;5077578;28;20402;-33
2022/01/22 05:41:18;;;;;;;7.40;4.18;;;;;;;16.51;50.35;103469.28;5082046;28;20044;-33
2022/01/22 05:43:45;;;;;;;8.13;4.18;;;;;;;16.50;51.45;103478.28;5082818;28;20094;-33
2022/01/22 05:46:11;;;;;;;7.78;3.95;;;;;;;16.51;50.95;103480.00;5081523;28;20056;-33
2022/01/22 05:48:38;;;;;;;6.57;3.83;;;;;;;16.50;50.77;103475.59;5082516;28;20048;-33
2022/01/22 05:51:06;;;;;;;8.02;4.10;;;;;;;16.49;50.24;103473.88;5083370;28;20351;-33
2022/01/22 05:53:50;;;;;;;6.88;3.97;;;;;;;16.49;51.16;103480.09;5083659;28;20048;-33
2022/01/22 05:59:36;;;;;;;7.22;3.42;;;;;;;16.50;51.17;103480.94;5082065;28;20040;-33
2022/01/22 06:01:57;;;;;;;6.82;3.88;;;;;;;16.50;51.21;103481.81;5079498;28;20074;-33
2022/01/22 06:04:24;;;;;;;6.10;3.17;;;;;;;16.50;50.22;103486.31;5083911;28;20480;-33
2022/01/22 06:06:51;;;;;;;4.90;3.10;;;;;;;16.49;50.78;103489.94;5084114;28;20102;-33
2022/01/22 06:09:17;;;;;;;6.20;3.63;;;;;;;16.49;50.17;103493.47;5084354;28;20526;-33
2022/01/22 06:11:55;;;;;;;8.57;3.55;;;;;;;16.50;50.83;103494.34;5083818;28;20131;-33
2022/01/22 06:14:21;;;;;;;7.63;3.88;;;;;;;16.48;50.39;103493.53;5083720;28;20056;-33
2022/01/22 06:16:48;;;;;;;6.63;3.60;;;;;;;16.47;50.78;103494.47;5084796;28;20052;-33
2022/01/22 06:19:14;;;;;;;7.25;3.10;;;;;;;16.47;51.11;103487.31;5081880;28;20126;-32
2022/01/22 06:21:41;;;;;;;4.65;2.95;;;;;;;16.46;51.40;103496.31;5085307;28;20078;-33
2022/01/22 06:24:08;;;;;;;5.68;3.22;;;;;;;16.46;50.27;103498.13;5085132;28;20044;-32
2022/01/22 06:26:35;;;;;;;6.05;3.47;;;;;;;16.46;51.13;103498.13;5084420;28;20061;-32
2022/01/22 06:29:03;;;;;;;5.28;3.00;;;;;;;16.46;51.10;103492.75;5082301;28;20072;-33
2022/01/22 06:31:30;;;;;;;5.47;3.22;;;;;;;16.45;51.46;103496.38;5083664;28;20043;-34
2022/01/22 06:33:58;;;;;;;6.00;2.80;;;;;;;16.46;51.11;103506.16;5080248;28;20098;-33
2022/01/22 06:36:26;;;;;;;5.90;2.85;;;;;;;16.45;50.37;103515.13;5080679;28;20074;-33
2022/01/22 06:38:58;;;;;;;4.95;2.80;;;;;;;16.46;50.53;103514.19;5082618;28;20523;-34
2022/01/22 06:44:24;;;;;;;7.50;3.50;;;;;;;16.45;51.28;103523.16;5084420;28;20056;-34
2022/01/22 06:46:55;;;;;;;6.35;3.00;;;;;;;16.43;50.75;103517.88;5082115;28;20044;-34
2022/01/22 06:49:22;;;;;;;5.50;2.60;;;;;;;16.44;51.08;103526.75;5083180;28;20121;-33
2022/01/22 06:51:50;;;;;;;5.10;2.80;;;;;;;16.43;51.10;103525.91;5083956;28;20070;-34
2022/01/22 06:54:17;;;;;;;6.70;2.50;;;;;;;16.47;50.81;103526.59;5081839;28;20052;-34
2022/01/22 06:56:44;;;;;;;6.03;3.05;;;;;;;16.54;50.90;103522.69;5084600;28;20359;-34
2022/01/22 06:59:11;;;;;;;5.53;2.45;;;;;;;16.63;50.92;103530.22;5081977;28;20576;-34
2022/01/22 07:01:38;;;;;;;4.30;2.38;;;;;;;16.72;51.02;103528.88;5083431;28;20052;-34
2022/01/22 07:04:06;;;;;;;5.28;2.15;;;;;;;16.83;50.47;103533.72;5085776;28;20503;-34
2022/01/22 07:06:33;;;;;;;4.80;2.53;;;;;;;16.92;50.90;103531.44;5082663;28;20045;-34
2022/01/22 07:08:59;;;;;;;4.25;2.30;;;;;;;17.03;50.91;103522.84;5081802;28;20086;-34
2022/01/22 07:11:26;;;;;;;5.00;2.30;;;;;;;17.13;50.71;103524.09;5082323;28;20037;-34
2022/01/22 07:13:52;;;;;;;5.75;2.45;;;;;;;17.22;49.95;103531.63;5076793;28;20047;-34
2022/01/22 07:16:19;;;;;;;4.18;2.13;;;;;;;17.31;50.69;103526.72;5085373;28;20383;-34
2022/01/22 07:18:46;;;;;;;5.68;2.67;;;;;;;17.39;50.53;103527.16;5078679;28;20106;-33
2022/01/22 07:21:20;;;;;;;5.80;2.30;;;;;;;17.44;49.74;103525.94;5081818;28;20687;-34
2022/01/22 07:26:15;;;;;;;4.97;2.17;;;;;;;17.52;49.59;103536.25;5081854;28;20423;-34
2022/01/22 07:28:42;;;;;;;4.68;2.30;;;;;;;17.56;49.51;103532.44;5077947;28;20051;-35
2022/01/22 07:31:10;;;;;;;4.82;2.10;;;;;;;17.57;50.32;103534.19;5080793;28;20037;-33
2022/01/22 07:33:37;;;;;;;9.75;3.40;;;;;;;17.58;49.61;103529.69;5081165;28;20148;-34
2022/01/22 07:36:04;;;;;;;9.70;3.70;;;;;;;17.58;49.54;103535.94;5074209;28;20051;-34
2022/01/22 07:38:31;;;;;;;10.63;5.00;;;;;;;17.56;49.95;103527.09;5077630;28;20058;-34
2022/01/22 07:40:57;;;;;;;14.68;7.25;;;;;;;17.52;49.84;103521.03;5080100;28;20598;-35
2022/01/22 07:43:24;;;;;;;16.75;8.57;;;;;;;17.50;49.76;103517.56;5078123;28;20166;-34
2022/01/22 07:45:50;;;;;;;20.15;8.68;;;;;;;17.46;49.24;103513.34;5078171;28;20044;-34
2022/01/22 07:48:17;;;;;;;19.85;9.70;;;;;;;17.44;49.81;103530.44;5077533;28;20048;-34
2022/01/22 07:50:44;;;;;;;20.35;10.20;;;;;;;17.41;49.43;103517.22;5078122;28;20136;-34
2022/01/22 07:53:10;;;;;;;21.55;10.55;;;;;;;17.38;50.05;103517.38;5077818;28;20053;-35
2022/01/22 07:55:39;;;;;;;25.27;11.27;;;;;;;17.35;49.34;103512.19;5076329;28;20109;-35
2022/01/22 07:58:06;;;;;;;26.48;12.70;;;;;;;17.32;49.70;103512.34;5078905;28;20060;-34
2022/01/22 08:00:33;;;;;;;22.55;12.13;;;;;;;17.31;50.03;103510.63;5078094;28;20478;-34
2022/01/22 08:03:00;;;;;;;24.52;12.98;;;;;;;17.27;49.78;103508.09;5077760;28;20083;-34
2022/01/22 08:05:27;;;;;;;30.67;14.18;;;;;;;17.25;49.97;103499.28;5078588;28;20586;-34
2022/01/22 08:07:54;;;;;;;31.20;15.25;;;;;;;17.22;50.12;103507.50;5079969;28;20060;-34
2022/01/22 08:10:20;;;;;;;33.40;16.92;;;;;;;17.21;49.65;103508.47;5075099;28;20056;-34
2022/01/22 08:12:50;;;;;;;37.08;19.42;;;;;;;17.20;49.70;103516.56;5075424;28;20138;-34
2022/01/22 08:15:17;;;;;;;45.22;21.73;;;;;;;17.20;50.29;103525.47;5076829;28;20068;-33
2022/01/22 08:17:44;;;;;;;42.90;23.42;;;;;;;17.17;49.87;103514.94;5079814;28;20095;-34
2022/01/22 08:20:14;;;;;;;50.80;24.98;;;;;;;17.15;49.94;103516.81;5078289;28;20121;-33
2022/01/22 08:22:42;;;;;;;47.95;25.63;;;;;;;17.15;49.74;103521.31;5078275;28;20054;-34
2022/01/22 08:25:10;;;;;;;51.30;27.38;;;;;;;17.13;49.78;103525.91;5076667;28;20131;-33
2022/01/22 08:30:29;;;;;;;50.85;27.15;;;;;;;17.10;50.04;103524.25;5067484;28;20048;-34
2022/01/22 08:35:53;;;;;;;52.15;28.23;;;;;;;17.08;49.42;103534.16;5072528;28;20432;-35
2022/01/22 08:38:38;;;;;;;54.42;29.65;;;;;;;17.05;49.88;103531.66;5080280;28;20044;-34
2022/01/22 08:41:04;;;;;;;54.30;28.95;;;;;;;17.05;50.07;103533.47;5076597;28;20048;-34
2022/01/22 08:43:31;;;;;;;59.05;30.50;;;;;;;17.03;49.54;103529.06;5075673;28;20159;-34
2022/01/22 08:46:00;;;;;;;61.50;33.38;;;;;;;17.02;50.06;103527.31;5082340;28;20509;-34
2022/01/22 08:48:27;;;;;;;68.00;35.17;;;;;;;17.01;49.44;103530.97;5076161;28;20064;-34
2022/01/22 08:50:54;;;;;;;75.40;38.03;;;;;;;16.99;50.01;103531.97;5073879;28;20131;-34
2022/01/22 08:53:41;;;;;;;74.85;38.42;;;;;;;17.00;49.48;103539.06;5075276;28;20074;-35
2022/01/22 08:56:09;;;;;;;74.65;39.25;;;;;;;16.99;49.69;103540.00;5073777;28;20148;-35
2022/01/22 08:58:36;;;;;;;89.40;45.78;;;;;;;16.95;49.46;103542.00;5078924;28;20044;-34
2022/01/22 09:01:03;;;;;;;83.97;44.00;;;;;;;16.95;49.57;103547.34;5077891;28;20054;-34
2022/01/22 09:03:30;;;;;;;94.07;49.40;;;;;;;16.94;50.04;103542.09;5071902;28;20048;-34
2022/01/22 09:05:57;;;;;;;92.85;49.75;;;;;;;16.93;49.22;103551.94;5079156;28;20062;-34
2022/01/22 09:08:25;;;;;;;100.70;51.70;;;;;;;16.92;50.11;103560.91;5075078;28;20040;-33
2022/01/22 09:10:53;;;;;;;99.53;52.00;;;;;;;16.91;49.69;103559.16;5076369;28;20044;-33
2022/01/22 09:13:21;;;;;;;102.47;52.97;;;;;;;16.89;49.60;103552.19;5078224;28;20351;-34
2022/01/22 09:15:50;;;;;;;102.10;52.78;;;;;;;16.87;50.56;103546.03;5082187;28;20098;-34
2022/01/22 09:18:17;;;;;;;93.22;50.25;;;;;;;16.86;49.51;103547.84;5081003;28;20856;-33
2022/01/22 09:21:01;;;;;;;103.38;53.25;;;;;;;16.85;50.24;103550.59;5082929;28;20048;-33
2022/01/22 09:23:29;;;;;;;100.68;54.08;;;;;;;16.85;49.90;103564.88;5078651;28;20048;-33
2022/01/22 09:25:57;;;;;;;102.57;54.28;;;;;;;16.83;50.30;103563.19;5081515;28;20342;-33
2022/01/22 09:28:25;;;;;;;105.40;54.88;;;;;;;16.83;50.29;103573.91;5078473;28;20135;-34
2022/01/22 09:30:52;;;;;;;95.25;51.65;;;;;;;16.81;50.12;103562.44;5081115;28;20056;-33
2022/01/22 09:33:19;;;;;;;100.30;53.15;;;;;;;16.80;49.43;103574.06;5080069;28;20311;-34
2022/01/22 09:35:45;;;;;;;104.63;52.28;;;;;;;16.79;49.76;103578.56;5083015;28;20135;-34
2022/01/22 09:38:12;;;;;;;96.60;52.10;;;;;;;16.78;50.50;103583.06;5079616;28;20055;-33
2022/01/22 09:40:39;;;;;;;104.13;56.08;;;;;;;16.78;49.30;103583.06;5082454;28;20059;-34
2022/01/22 09:43:05;;;;;;;110.13;60.78;;;;;;;16.77;50.21;103585.81;5083715;28;20036;-34
2022/01/22 09:45:32;;;;;;;119.32;63.90;;;;;;;16.78;49.83;103593.75;5078967;28;20131;-34
2022/01/22 09:48:00;;;;;;;122.30;66.47;;;;;;;16.76;49.56;103594.78;5078792;28;20048;-34
2022/01/22 09:50:28;;;;;;;123.90;67.07;;;;;;;16.74;49.91;103592.19;5077397;28;20482;-33
2022/01/22 09:52:55;;;;;;;124.82;67.43;;;;;;;16.74;49.66;103597.53;5082017;28;20147;-33
2022/01/22 09:55:22;;;;;;;131.05;69.30;;;;;;;16.72;49.86;103591.38;5077924;28;20155;-34
2022/01/22 09:57:49;;;;;;;134.18;68.82;;;;;;;16.72;50.60;103604.78;5078954;28;20508;-34
2022/01/22 10:00:19;;;;;;;128.98;68.88;;;;;;;16.71;49.78;103604.81;5080086;28;20044;-33
2022/01/22 10:02:48;;;;;;;131.13;69.28;;;;;;;16.69;49.51;103599.56;5081281;28;20467;-33
2022/01/22 10:05:38;;;;;;;127.03;67.57;;;;;;;16.68;49.88;103602.28;5079096;28;20419;-33
2022/01/22 10:08:21;;;;;;;121.75;66.20;;;;;;;16.69;50.06;103607.59;5072898;28;20060;-33
2022/01/22 10:10:48;;;;;;;127.68;67.80;;;;;;;16.76;50.62;103608.16;5073459;28;20775;-33
2022/01/22 10:13:38;;;;;;;123.18;67.03;;;;;;;16.79;49.95;103613.38;5076882;28;20041;-32
2022/01/22 10:16:29;;;;;;;124.07;66.47;;;;;;;16.84;50.51;103615.81;5075479;28;20056;-32
2022/01/22 10:19:18;;;;;;;121.75;66.20;;;;;;;16.88;50.36;103620.06;5074575;28;20112;-32
2022/01/22 10:21:55;;;;;;;120.53;64.50;;;;;;;16.90;50.05;103605.66;5074899;28;20051;-33
2022/01/22 10:24:22;;;;;;;121.63;63.65;;;;;;;16.94;50.95;103603.69;5072962;28;20048;-33
2022/01/22 10:27:47;;;;;;;120.82;64.72;;;;;;;16.94;49.95;103598.34;5077111;28;20051;-33
2022/01/22 10:30:11;;;;;;;120.80;63.30;;;;;;;16.99;50.50;103602.50;5070265;28;20106;-32
2022/01/22 10:35:11;;;;;;;113.65;58.58;;;;;;;17.02;50.53;103602.34;5073125;28;20143;-32
2022/01/22 10:37:38;;;;;;;112.93;59.53;;;;;;;17.06;50.21;103597.69;5071579;28;20055;-32
2022/01/22 10:40:25;;;;;;;111.82;59.10;;;;;;;17.08;50.36;103603.84;5071196;28;20640;-32
2022/01/22 10:43:10;;;;;;;99.30;52.45;;;;;;;17.10;49.68;103606.44;5071833;28;20048;-32
2022/01/22 10:45:40;;;;;;;105.10;55.42;;;;;;;17.14;49.70;103599.97;5071319;28;20044;-33
2022/01/22 10:48:18;;;;;;;106.38;56.65;;;;;;;17.15;50.19;103602.56;5069566;28;20052;-33
2022/01/22 10:50:45;;;;;;;119.32;61.53;;;;;;;17.21;49.64;103602.25;5074556;28;20070;-32
2022/01/22 10:53:12;;;;;;;132.88;70.45;;;;;;;17.28;49.64;103602.78;5073363;28;20067;-33
2022/01/22 10:56:01;;;;;;;138.10;74.28;;;;;;;17.38;49.90;103605.88;5076710;28;20579;-31
2022/01/22 10:58:28;;;;;;;137.35;73.45;;;;;;;17.47;50.06;103608.03;5070166;28;20052;-32
2022/01/22 11:01:13;;;;;;;135.15;73.25;;;;;;;17.58;49.83;103599.44;5075907;28;20048;-32
2022/01/22 11:03:40;;;;;;;135.73;72.75;;;;;;;17.67;49.42;103602.47;5074101;28;20052;-31
2022/01/22 11:06:24;;;;;;;133.63;70.55;;;;;;;17.78;49.53;103596.56;5073778;28;20048;-32
2022/01/22 11:08:51;;;;;;;125.43;69.45;;;;;;;17.88;49.44;103596.91;5074112;28;20048;-31
2022/01/22 11:11:18;;;;;;;128.02;71.07;;;;;;;17.96;49.27;103598.19;5073443;28;20048;-31
2022/01/22 11:13:45;;;;;;;126.00;69.63;;;;;;;18.04;49.02;103611.19;5072725;28;20132;-31
2022/01/22 11:16:14;;;;;;;126.43;68.75;;;;;;;18.10;49.17;103608.16;5074189;28;20062;-31
2022/01/22 11:19:02;;;;;;;124.85;67.45;;;;;;;18.19;48.92;103607.63;5073819;28;20052;-32
2022/01/22 11:21:31;;;;;;;124.85;68.82;;;;;;;18.24;48.94;103610.91;5071816;28;20062;-32
2022/01/22 11:23:58;;;;;;;232.30;102.80;;;;;;;18.31;49.29;103606.06;5071762;28;20142;-32
2022/01/22 11:26:25;;;;;;;227.68;104.25;;;;;;;18.36;48.95;103597.75;5072409;28;20056;-32
2022/01/22 11:28:53;;;;;;;215.50;99.38;;;;;;;18.42;48.77;103605.47;5068086;28;20048;-32
2022/01/22 11:31:23;;;;;;;203.82;97.28;;;;;;;18.45;48.60;103600.78;5071105;28;20147;-32
2022/01/22 11:33:51;;;;;;;216.85;97.53;;;;;;;18.50;48.99;103606.75;5070958;28;20535;-32
2022/01/22 11:36:25;;;;;;;208.55;94.95;;;;;;;18.54;48.48;103607.44;5072801;28;20478;-31
2022/01/22 11:38:55;;;;;;;199.70;93.43;;;;;;;18.61;48.70;103602.56;5072643;28;20162;-31
2022/01/22 11:41:23;;;;;;;198.20;94.90;;;;;;;18.66;48.48;103603.16;5071560;28;20053;-31
2022/01/22 11:44:10;;;;;;;184.98;89.95;;;;;;;18.69;48.26;103603.84;5070135;28;20055;-32
2022/01/22 11:46:45;;;;;;;178.35;85.70;;;;;;;18.74;48.52;103604.47;5075883;28;20683;-32
2022/01/22 11:49:25;;;;;;;180.45;85.07;;;;;;;18.81;48.58;103596.03;5063576;28;20135;-32
2022/01/22 11:52:14;;;;;;;167.55;82.93;;;;;;;18.86;48.20;103585.91;5066974;28;20036;-32
2022/01/22 11:54:54;;;;;;;168.07;82.72;;;;;;;18.89;48.44;103588.38;5064313;28;20048;-32
2022/01/22 11:57:22;;;;;;;165.70;83.00;;;;;;;18.94;48.34;103586.28;5070802;28;20048;-32
2022/01/22 12:00:20;;;;;;;162.30;82.05;;;;;;;18.95;48.65;103580.81;5069303;28;20647;-31
2022/01/22 12:03:08;;;;;;;148.00;77.45;;;;;;;19.01;48.37;103586.78;5071629;28;20219;-33
2022/01/22 12:05:56;;;;;;;135.07;68.10;;;;;;;19.07;47.64;103584.59;5068266;28;20058;-32
2022/01/22 12:08:23;;;;;;;139.00;72.90;;;;;;;19.10;48.20;103583.53;5072966;28;20063;-33
2022/01/22 12:14:28;;;;;;;140.65;72.05;;;;;;;19.15;48.02;103584.13;5072619;28;20052;-33
2022/01/22 12:16:41;;;;;;;138.93;73.28;;;;;;;19.16;47.54;103577.78;5070949;28;20047;-33
2022/01/22 12:19:46;;;;;;;130.80;71.15;;;;;;;19.12;47.12;103573.53;5071966;28;20461;-33
2022/01/22 12:22:34;;;;;;;129.30;69.47;;;;;;;19.14;47.72;103567.13;5072672;28;20750;-33
2022/01/22 12:25:21;;;;;;;134.73;72.20;;;;;;;19.19;46.96;103570.38;5072544;28;20140;-33
2022/01/22 12:27:52;;;;;;;136.82;72.90;;;;;;;19.26;46.69;103565.50;5065552;28;20082;-33
2022/01/22 12:30:43;;;;;;;130.40;70.38;;;;;;;19.33;46.85;103568.66;5073531;28;20059;-33
2022/01/22 12:33:38;;;;;;;129.65;70.57;;;;;;;19.44;46.95;103572.41;5072836;28;20110;-33
2022/01/22 12:36:08;;;;;;;133.75;70.15;;;;;;;19.57;46.79;103582.38;5066267;28;20055;-33
2022/01/22 12:38:45;;;;;;;135.18;72.03;;;;;;;19.68;46.67;103578.09;5070082;28;20054;-32
2022/01/22 12:41:27;;;;;;;136.48;74.95;;;;;;;19.81;46.64;103578.16;5070909;28;20135;-32
2022/01/22 12:44:33;;;;;;;134.15;72.90;;;;;;;19.92;46.23;103583.72;5070633;28;20051;-32
2022/01/22 12:47:09;;;;;;;133.25;73.47;;;;;;;20.07;46.20;103578.31;5070316;28;20492;-32
2022/01/22 12:49:36;;;;;;;137.27;75.03;;;;;;;20.19;45.96;103580.22;5068047;28;20093;-32
2022/01/22 12:52:13;;;;;;;136.75;72.93;;;;;;;20.32;46.34;103580.25;5074313;28;20079;-33
2022/01/22 12:54:44;;;;;;;135.73;73.57;;;;;;;20.45;45.83;103584.69;5072451;28;20339;-33
2022/01/22 12:57:22;;;;;;;132.60;73.90;;;;;;;20.57;45.37;103577.66;5070199;28;20588;-33
2022/01/22 12:59:53;;;;;;;133.50;75.88;;;;;;;20.69;45.53;103579.50;5074885;28;20048;-32